createdAt,value
2023-02-05T00:00:36.687Z,9
2023-02-05T00:02:20.367Z,9
2023-02-05T00:04:04.131Z,10
2023-02-05T00:05:47.775Z,1
2023-02-05T00:07:31.481Z,1
2023-02-05T00:09:15.248Z,1
2023-02-05T00:10:58.876Z,1
2023-02-05T00:12:42.606Z,1
2023-02-05T00:14:26.284Z,1
2023-02-05T00:16:10.038Z,1
2023-02-05T00:17:53.695Z,1
2023-02-05T00:19:37.412Z,0
2023-02-05T00:21:21.137Z,1
2023-02-05T00:23:04.843Z,1
2023-02-05T00:24:48.513Z,1
2023-02-05T00:26:32.276Z,1
2023-02-05T00:28:15.923Z,1
2023-02-05T00:29:59.616Z,1
2023-02-05T00:31:43.310Z,9
2023-02-05T00:33:27.009Z,9
2023-02-05T00:35:10.758Z,9
2023-02-05T00:36:54.412Z,0
2023-02-05T00:38:38.115Z,1
2023-02-05T00:40:21.824Z,1
2023-02-05T00:42:05.587Z,1
2023-02-05T00:43:49.238Z,1
2023-02-05T00:45:32.983Z,2
2023-02-05T00:47:16.651Z,9
2023-02-05T00:49:00.336Z,9
2023-02-05T00:50:44.038Z,1
2023-02-05T00:54:11.496Z,2
2023-02-05T00:55:55.142Z,1
2023-02-05T00:57:38.858Z,0
2023-02-05T00:59:22.553Z,1
2023-02-05T01:01:06.251Z,1
2023-02-05T01:02:49.965Z,1
2023-02-05T01:04:33.666Z,1
2023-02-05T01:06:17.367Z,1
2023-02-05T01:08:01.209Z,1
2023-02-05T01:09:44.773Z,1
2023-02-05T01:11:28.550Z,1
2023-02-05T01:13:12.182Z,1
2023-02-05T01:14:55.878Z,1
2023-02-05T01:16:39.582Z,1
2023-02-05T01:18:23.280Z,10
2023-02-05T01:20:07.031Z,10
2023-02-05T01:21:50.693Z,10
2023-02-05T01:23:34.409Z,1
2023-02-05T01:25:18.097Z,1
2023-02-05T01:27:01.832Z,1
2023-02-05T01:28:45.497Z,1
2023-02-05T01:30:29.206Z,2
2023-02-05T01:32:12.905Z,1
2023-02-05T01:33:56.601Z,1
2023-02-05T01:35:40.305Z,1
2023-02-05T01:37:24.014Z,1
2023-02-05T01:39:07.713Z,1
2023-02-05T01:40:51.417Z,1
2023-02-05T01:42:35.117Z,1
2023-02-05T01:44:18.819Z,1
2023-02-05T01:46:02.523Z,0
2023-02-05T01:47:46.215Z,1
2023-02-05T01:49:29.924Z,1
2023-02-05T01:51:13.628Z,1
2023-02-05T01:52:57.327Z,1
2023-02-05T01:54:41.046Z,1
2023-02-05T01:56:24.737Z,1
2023-02-05T01:58:08.433Z,1
2023-02-05T01:59:52.133Z,1
2023-02-05T02:01:35.891Z,0
2023-02-05T02:03:19.555Z,2
2023-02-05T02:05:03.255Z,1
2023-02-05T02:06:46.939Z,1
2023-02-05T02:08:30.646Z,1
2023-02-05T02:10:14.405Z,1
2023-02-05T02:11:58.047Z,1
2023-02-05T02:13:41.760Z,1
2023-02-05T02:15:25.492Z,0
2023-02-05T02:17:09.152Z,1
2023-02-05T02:18:52.860Z,0
2023-02-05T02:20:36.559Z,1
2023-02-05T02:22:20.351Z,1
2023-02-05T02:25:47.669Z,1
2023-02-05T02:27:31.378Z,1
2023-02-05T02:29:15.086Z,1
2023-02-05T02:30:58.774Z,1
2023-02-05T02:32:42.477Z,1
2023-02-05T02:34:26.185Z,1
2023-02-05T02:36:09.882Z,0
2023-02-05T02:37:53.595Z,0
2023-02-05T02:39:37.288Z,2
2023-02-05T02:41:20.986Z,1
2023-02-05T02:43:04.691Z,1
2023-02-05T02:44:48.390Z,1
2023-02-05T02:46:32.114Z,1
2023-02-05T02:48:15.807Z,1
2023-02-05T02:49:59.499Z,0
2023-02-05T02:51:43.214Z,1
2023-02-05T02:53:26.914Z,1
2023-02-05T02:55:10.613Z,1
2023-02-05T02:56:54.313Z,2
2023-02-05T02:58:38.016Z,1
2023-02-05T03:00:21.758Z,1
2023-02-05T03:02:05.423Z,1
2023-02-05T03:03:49.129Z,0
2023-02-05T03:05:32.827Z,1
2023-02-05T03:07:16.536Z,1
2023-02-05T03:09:00.239Z,1
2023-02-05T03:10:43.936Z,2
2023-02-05T03:12:27.645Z,1
2023-02-05T03:14:11.342Z,1
2023-02-05T03:17:38.755Z,1
2023-02-05T03:19:22.527Z,1
2023-02-05T03:21:06.152Z,1
2023-02-05T03:22:49.857Z,1
2023-02-05T03:24:33.565Z,2
2023-02-05T03:26:17.257Z,1
2023-02-05T03:28:00.963Z,1
2023-02-05T03:29:44.666Z,1
2023-02-05T03:31:28.375Z,1
2023-02-05T03:33:12.129Z,1
2023-02-05T03:34:55.816Z,1
2023-02-05T03:36:39.487Z,1
2023-02-05T03:38:23.213Z,1
2023-02-05T03:40:06.895Z,1
2023-02-05T03:41:50.623Z,1
2023-02-05T03:43:34.330Z,1
2023-02-05T03:45:17.996Z,2
2023-02-05T03:47:01.709Z,1
2023-02-05T03:48:45.396Z,1
2023-02-05T03:50:29.117Z,1
2023-02-05T03:52:12.807Z,1
2023-02-05T03:53:56.512Z,2
2023-02-05T03:55:40.216Z,1
2023-02-05T03:57:23.907Z,1
2023-02-05T03:59:07.615Z,1
2023-02-05T04:00:51.317Z,1
2023-02-05T04:02:35.015Z,0
2023-02-05T04:04:18.736Z,1
2023-02-05T04:06:02.433Z,1
2023-02-05T04:07:46.127Z,2
2023-02-05T04:09:29.825Z,1
2023-02-05T04:11:13.529Z,1
2023-02-05T04:12:57.237Z,1
2023-02-05T04:14:40.945Z,0
2023-02-05T04:16:24.648Z,1
2023-02-05T04:18:08.342Z,1
2023-02-05T04:19:52.056Z,1
2023-02-05T04:21:35.741Z,1
2023-02-05T04:23:19.456Z,1
2023-02-05T04:25:03.139Z,0
2023-02-05T04:26:46.845Z,1
2023-02-05T04:28:30.554Z,1
2023-02-05T04:30:14.263Z,1
2023-02-05T04:31:57.956Z,1
2023-02-05T04:33:41.663Z,1
2023-02-05T04:35:25.398Z,1
2023-02-05T04:37:09.084Z,2
2023-02-05T04:38:52.859Z,2
2023-02-05T04:40:36.484Z,1
2023-02-05T04:42:20.178Z,1
2023-02-05T04:44:03.883Z,1
2023-02-05T04:45:47.585Z,1
2023-02-05T04:47:31.301Z,0
2023-02-05T04:49:15.003Z,1
2023-02-05T04:50:58.697Z,1
2023-02-05T04:52:42.407Z,2
2023-02-05T04:54:26.127Z,2
2023-02-05T04:56:09.802Z,1
2023-02-05T04:57:53.527Z,1
2023-02-05T04:59:37.211Z,1
2023-02-05T05:01:20.914Z,1
2023-02-05T05:03:04.613Z,1
2023-02-05T05:04:48.333Z,1
2023-02-05T05:06:32.058Z,1
2023-02-05T05:08:15.725Z,1
2023-02-05T05:09:59.420Z,2
2023-02-05T05:11:43.129Z,1
2023-02-05T05:13:26.890Z,1
2023-02-05T05:15:10.526Z,1
2023-02-05T05:16:54.243Z,1
2023-02-05T05:18:37.950Z,1
2023-02-05T05:20:21.646Z,1
2023-02-05T05:22:05.342Z,1
2023-02-05T05:23:49.041Z,1
2023-02-05T05:25:32.753Z,1
2023-02-05T05:27:16.471Z,1
2023-02-05T05:29:00.164Z,1
2023-02-05T05:30:43.874Z,2
2023-02-05T05:32:27.572Z,1
2023-02-05T05:34:11.328Z,1
2023-02-05T05:35:54.990Z,1
2023-02-05T05:37:38.671Z,0
2023-02-05T05:39:22.377Z,1
2023-02-05T05:41:06.081Z,1
2023-02-05T05:42:49.794Z,1
2023-02-05T05:44:33.497Z,1
2023-02-05T05:46:17.200Z,1
2023-02-05T05:48:00.893Z,1
2023-02-05T05:49:44.593Z,1
2023-02-05T05:51:28.311Z,1
2023-02-05T05:53:12.009Z,1
2023-02-05T05:54:55.713Z,1
2023-02-05T05:56:39.404Z,0
2023-02-05T05:58:23.121Z,1
2023-02-05T06:00:06.810Z,1
2023-02-05T06:01:50.504Z,1
2023-02-05T06:03:34.210Z,1
2023-02-05T06:05:17.980Z,2
2023-02-05T06:07:01.620Z,2
2023-02-05T06:08:45.349Z,1
2023-02-05T06:10:29.019Z,1
2023-02-05T06:12:12.741Z,1
2023-02-05T06:13:56.496Z,1
2023-02-05T06:15:40.162Z,1
2023-02-05T06:17:23.867Z,1
2023-02-05T06:19:07.536Z,1
2023-02-05T06:20:51.234Z,2
2023-02-05T06:22:34.941Z,2
2023-02-05T06:24:18.647Z,2
2023-02-05T06:26:02.371Z,2
2023-02-05T06:27:46.056Z,2
2023-02-05T06:29:29.747Z,3
2023-02-05T06:31:13.463Z,5
2023-02-05T06:32:57.158Z,5
2023-02-05T06:34:40.857Z,7
2023-02-05T06:36:24.561Z,8
2023-02-05T06:38:08.273Z,9
2023-02-05T06:39:51.990Z,12
2023-02-05T06:41:35.668Z,16
2023-02-05T06:43:19.383Z,18
2023-02-05T06:45:03.083Z,19
2023-02-05T06:46:46.780Z,19
2023-02-05T06:48:30.471Z,18
2023-02-05T06:50:14.191Z,19
2023-02-05T06:51:57.905Z,21
2023-02-05T06:53:41.583Z,25
2023-02-05T06:55:25.332Z,32
2023-02-05T06:57:09.021Z,37
2023-02-05T06:58:52.693Z,40
2023-02-05T07:00:36.392Z,43
2023-02-05T07:02:20.099Z,43
2023-02-05T07:04:03.798Z,47
2023-02-05T07:05:47.505Z,54
2023-02-05T07:07:31.203Z,59
2023-02-05T07:09:14.937Z,63
2023-02-05T07:10:58.606Z,66
2023-02-05T07:12:42.308Z,67
2023-02-05T07:14:26.017Z,64
2023-02-05T07:16:09.721Z,60
2023-02-05T07:17:53.446Z,61
2023-02-05T07:19:37.126Z,61
2023-02-05T07:21:20.827Z,63
2023-02-05T07:23:04.592Z,65
2023-02-05T07:24:48.240Z,71
2023-02-05T07:26:31.936Z,74
2023-02-05T07:28:15.648Z,70
2023-02-05T07:29:59.342Z,65
2023-02-05T07:31:43.057Z,67
2023-02-05T07:33:26.747Z,69
2023-02-05T07:35:10.460Z,70
2023-02-05T07:36:54.154Z,70
2023-02-05T07:38:37.853Z,72
2023-02-05T07:40:21.557Z,81
2023-02-05T07:42:05.264Z,91
2023-02-05T07:43:48.973Z,100
2023-02-05T07:45:32.716Z,106
2023-02-05T07:47:16.409Z,108
2023-02-05T07:49:00.092Z,108
2023-02-05T07:50:43.763Z,107
2023-02-05T07:52:27.469Z,113
2023-02-05T07:54:11.280Z,119
2023-02-05T07:55:54.871Z,114
2023-02-05T07:57:38.579Z,106
2023-02-05T07:59:22.288Z,105
2023-02-05T08:01:05.980Z,107
2023-02-05T08:02:49.763Z,112
2023-02-05T08:04:33.473Z,117
2023-02-05T08:06:17.108Z,121
2023-02-05T08:08:00.794Z,121
2023-02-05T08:09:44.491Z,121
2023-02-05T08:11:28.198Z,131
2023-02-05T08:13:11.901Z,137
2023-02-05T08:14:55.710Z,146
2023-02-05T08:16:39.304Z,151
2023-02-05T08:18:23.015Z,149
2023-02-05T08:20:06.707Z,137
2023-02-05T08:21:50.441Z,109
2023-02-05T08:23:34.120Z,88
2023-02-05T08:25:17.814Z,91
2023-02-05T08:27:01.527Z,118
2023-02-05T08:28:45.293Z,149
2023-02-05T08:30:28.947Z,162
2023-02-05T08:32:12.660Z,165
2023-02-05T08:33:56.417Z,180
2023-02-05T08:35:40.045Z,198
2023-02-05T08:37:23.736Z,208
2023-02-05T08:39:07.430Z,219
2023-02-05T08:40:51.205Z,228
2023-02-05T08:42:34.841Z,236
2023-02-05T08:44:18.544Z,246
2023-02-05T08:46:02.251Z,248
2023-02-05T08:47:45.951Z,236
2023-02-05T08:49:29.700Z,220
2023-02-05T08:51:13.357Z,215
2023-02-05T08:52:57.112Z,211
2023-02-05T08:54:40.755Z,207
2023-02-05T08:56:24.476Z,209
2023-02-05T08:58:08.160Z,212
2023-02-05T08:59:51.865Z,220
2023-02-05T09:01:35.627Z,231
2023-02-05T09:03:19.258Z,233
2023-02-05T09:05:02.980Z,233
2023-02-05T09:06:46.682Z,234
2023-02-05T09:08:30.380Z,241
2023-02-05T09:10:14.081Z,251
2023-02-05T09:11:57.781Z,265
2023-02-05T09:13:41.487Z,270
2023-02-05T09:15:25.194Z,262
2023-02-05T09:17:08.896Z,248
2023-02-05T09:18:52.686Z,237
2023-02-05T09:20:36.309Z,226
2023-02-05T09:22:19.995Z,208
2023-02-05T09:24:03.760Z,191
2023-02-05T09:25:47.399Z,178
2023-02-05T09:27:31.140Z,170
2023-02-05T09:29:14.892Z,156
2023-02-05T09:30:58.526Z,144
2023-02-05T09:32:42.220Z,136
2023-02-05T09:34:25.922Z,138
2023-02-05T09:36:09.624Z,142
2023-02-05T09:37:53.394Z,138
2023-02-05T09:39:37.030Z,129
2023-02-05T09:41:20.793Z,117
2023-02-05T09:43:04.427Z,109
2023-02-05T09:44:48.139Z,105
2023-02-05T09:46:31.847Z,104
2023-02-05T09:48:15.563Z,102
2023-02-05T09:49:59.254Z,101
2023-02-05T09:51:42.977Z,101
2023-02-05T09:53:26.667Z,101
2023-02-05T09:55:10.361Z,104
2023-02-05T09:56:54.063Z,109
2023-02-05T09:58:37.791Z,116
2023-02-05T10:00:21.523Z,127
2023-02-05T10:02:05.167Z,137
2023-02-05T10:03:48.871Z,147
2023-02-05T10:05:32.569Z,164
2023-02-05T10:07:16.286Z,176
2023-02-05T10:08:59.986Z,170
2023-02-05T10:10:43.678Z,165
2023-02-05T10:12:27.410Z,173
2023-02-05T10:14:11.090Z,184
2023-02-05T10:15:54.788Z,198
2023-02-05T10:17:38.498Z,207
2023-02-05T10:19:22.180Z,215
2023-02-05T10:21:05.885Z,234
2023-02-05T10:22:49.597Z,250
2023-02-05T10:24:33.300Z,262
2023-02-05T10:26:17.006Z,278
2023-02-05T10:28:00.729Z,294
2023-02-05T10:29:44.477Z,287
2023-02-05T10:31:28.200Z,271
2023-02-05T10:33:11.951Z,270
2023-02-05T10:34:55.698Z,280
2023-02-05T10:36:39.215Z,289
2023-02-05T10:38:23.136Z,300
2023-02-05T10:40:06.810Z,307
2023-02-05T10:41:50.324Z,329
2023-02-05T10:43:34.163Z,368
2023-02-05T10:45:17.816Z,419
2023-02-05T10:47:01.499Z,456
2023-02-05T10:48:45.224Z,475
2023-02-05T10:50:28.951Z,481
2023-02-05T10:52:12.637Z,503
2023-02-05T10:53:56.406Z,502
2023-02-05T10:55:40.076Z,491
2023-02-05T10:57:23.651Z,497
2023-02-05T10:59:07.550Z,482
2023-02-05T11:00:51.158Z,438
2023-02-05T11:02:34.871Z,379
2023-02-05T11:04:18.571Z,332
2023-02-05T11:06:02.296Z,311
2023-02-05T11:07:45.946Z,287
2023-02-05T11:09:29.561Z,283
2023-02-05T11:11:13.388Z,285
2023-02-05T11:12:56.967Z,273
2023-02-05T11:14:40.833Z,272
2023-02-05T11:16:24.582Z,279
2023-02-05T11:18:08.077Z,283
2023-02-05T11:19:51.952Z,287
2023-02-05T11:21:35.555Z,274
2023-02-05T11:23:19.378Z,276
2023-02-05T11:25:02.883Z,266
2023-02-05T11:26:46.578Z,276
2023-02-05T11:28:30.427Z,316
2023-02-05T11:30:13.984Z,359
2023-02-05T11:31:57.754Z,403
2023-02-05T11:33:41.403Z,419
2023-02-05T11:35:25.223Z,422
2023-02-05T11:37:08.800Z,377
2023-02-05T11:38:52.509Z,357
2023-02-05T11:40:36.205Z,335
2023-02-05T11:42:19.945Z,302
2023-02-05T11:44:03.609Z,307
2023-02-05T11:45:47.305Z,336
2023-02-05T11:47:31.012Z,365
2023-02-05T11:49:14.719Z,349
2023-02-05T11:50:58.429Z,343
2023-02-05T11:52:42.126Z,342
2023-02-05T11:54:25.855Z,337
2023-02-05T11:56:09.520Z,325
2023-02-05T11:57:53.222Z,343
2023-02-05T11:59:36.931Z,366
2023-02-05T12:01:20.636Z,380
2023-02-05T12:03:04.348Z,366
2023-02-05T12:04:48.075Z,334
2023-02-05T12:06:31.749Z,346
2023-02-05T12:08:15.458Z,361
2023-02-05T12:09:59.159Z,413
2023-02-05T12:11:42.858Z,422
2023-02-05T12:13:26.563Z,401
2023-02-05T12:15:10.273Z,357
2023-02-05T12:16:53.967Z,362
2023-02-05T12:18:37.684Z,393
2023-02-05T12:20:21.419Z,385
2023-02-05T12:22:05.084Z,341
2023-02-05T12:23:48.778Z,292
2023-02-05T12:25:32.502Z,244
2023-02-05T12:27:16.183Z,204
2023-02-05T12:28:59.880Z,186
2023-02-05T12:30:43.613Z,185
2023-02-05T12:32:27.298Z,187
2023-02-05T12:34:10.985Z,193
2023-02-05T12:35:54.706Z,197
2023-02-05T12:37:38.452Z,189
2023-02-05T12:39:22.092Z,181
2023-02-05T12:41:05.801Z,169
2023-02-05T12:42:49.556Z,157
2023-02-05T12:44:33.216Z,147
2023-02-05T12:46:16.903Z,142
2023-02-05T12:48:00.594Z,149
2023-02-05T12:49:44.311Z,172
2023-02-05T12:51:28.004Z,180
2023-02-05T12:53:11.712Z,167
2023-02-05T12:54:55.412Z,164
2023-02-05T12:56:39.113Z,160
2023-02-05T12:58:22.817Z,155
2023-02-05T13:00:06.537Z,153
2023-02-05T13:01:50.215Z,143
2023-02-05T13:03:33.928Z,142
2023-02-05T13:05:17.637Z,152
2023-02-05T13:07:01.324Z,153
2023-02-05T13:08:45.056Z,159
2023-02-05T13:10:28.741Z,156
2023-02-05T13:12:12.450Z,172
2023-02-05T13:13:56.137Z,198
2023-02-05T13:15:39.851Z,212
2023-02-05T13:17:23.548Z,207
2023-02-05T13:19:07.247Z,197
2023-02-05T13:20:50.956Z,178
2023-02-05T13:22:34.652Z,163
2023-02-05T13:24:18.365Z,165
2023-02-05T13:26:02.060Z,174
2023-02-05T13:27:45.763Z,177
2023-02-05T13:29:29.463Z,170
2023-02-05T13:31:13.166Z,195
2023-02-05T13:32:56.883Z,200
2023-02-05T13:34:40.584Z,193
2023-02-05T13:36:24.280Z,190
2023-02-05T13:38:07.972Z,185
2023-02-05T13:39:51.697Z,181
2023-02-05T13:41:35.388Z,179
2023-02-05T13:43:19.091Z,184
2023-02-05T13:45:02.789Z,180
2023-02-05T13:46:46.502Z,173
2023-02-05T13:48:30.199Z,171
2023-02-05T13:50:13.883Z,169
2023-02-05T13:51:57.598Z,169
2023-02-05T13:53:41.302Z,169
2023-02-05T13:57:08.711Z,164
2023-02-05T13:58:52.404Z,159
2023-02-05T14:00:36.112Z,150
2023-02-05T14:02:19.817Z,147
2023-02-05T14:04:03.513Z,143
2023-02-05T14:05:47.220Z,149
2023-02-05T14:07:30.922Z,162
2023-02-05T14:09:14.618Z,183
2023-02-05T14:10:58.328Z,191
2023-02-05T14:12:42.033Z,196
2023-02-05T14:14:25.737Z,197
2023-02-05T14:16:09.495Z,188
2023-02-05T14:17:53.135Z,184
2023-02-05T14:19:36.849Z,191
2023-02-05T14:21:20.550Z,177
2023-02-05T14:23:04.246Z,170
2023-02-05T14:24:47.951Z,160
2023-02-05T14:26:31.654Z,156
2023-02-05T14:28:15.347Z,149
2023-02-05T14:29:59.067Z,141
2023-02-05T14:31:42.763Z,151
2023-02-05T14:33:26.466Z,154
2023-02-05T14:35:10.171Z,147
2023-02-05T14:36:53.871Z,148
2023-02-05T14:38:37.574Z,151
2023-02-05T14:40:21.278Z,158
2023-02-05T14:42:04.972Z,160
2023-02-05T14:43:48.681Z,162
2023-02-05T14:45:32.386Z,170
2023-02-05T14:47:16.088Z,160
2023-02-05T14:48:59.788Z,155
2023-02-05T14:50:43.494Z,150
2023-02-05T14:52:27.217Z,149
2023-02-05T14:54:10.893Z,150
2023-02-05T14:55:54.613Z,151
2023-02-05T14:57:38.330Z,144
2023-02-05T14:59:22.024Z,142
2023-02-05T15:01:05.701Z,130
2023-02-05T15:02:49.422Z,125
2023-02-05T15:04:33.115Z,121
2023-02-05T15:06:16.813Z,117
2023-02-05T15:08:00.516Z,115
2023-02-05T15:09:44.220Z,111
2023-02-05T15:11:27.953Z,106
2023-02-05T15:13:11.624Z,100
2023-02-05T15:14:55.321Z,93
2023-02-05T15:16:39.028Z,87
2023-02-05T15:18:22.742Z,78
2023-02-05T15:20:06.456Z,77
2023-02-05T15:21:50.153Z,69
2023-02-05T15:23:33.852Z,66
2023-02-05T15:25:17.547Z,64
2023-02-05T15:27:01.247Z,65
2023-02-05T15:28:44.959Z,67
2023-02-05T15:30:28.658Z,68
2023-02-05T15:32:12.367Z,82
2023-02-05T15:33:56.056Z,86
2023-02-05T15:35:39.765Z,92
2023-02-05T15:37:23.480Z,88
2023-02-05T15:39:07.175Z,81
2023-02-05T15:40:50.879Z,77
2023-02-05T15:42:34.609Z,74
2023-02-05T15:44:18.278Z,67
2023-02-05T15:46:02.016Z,62
2023-02-05T15:47:45.700Z,56
2023-02-05T15:49:29.390Z,51
2023-02-05T15:51:13.095Z,48
2023-02-05T15:52:56.783Z,50
2023-02-05T15:54:40.493Z,49
2023-02-05T15:56:24.255Z,104
2023-02-05T15:58:07.950Z,98
2023-02-05T15:59:51.615Z,93
2023-02-05T16:01:35.304Z,86
2023-02-05T16:03:19.006Z,78
2023-02-05T16:05:02.703Z,73
2023-02-05T16:06:46.409Z,71
2023-02-05T16:08:30.114Z,70
2023-02-05T16:10:13.873Z,68
2023-02-05T16:11:57.909Z,66
2023-02-05T16:13:41.235Z,65
2023-02-05T16:15:24.948Z,64
2023-02-05T16:17:08.625Z,64
2023-02-05T16:18:52.332Z,64
2023-02-05T16:20:36.027Z,70
2023-02-05T16:22:19.742Z,66
2023-02-05T16:24:03.439Z,64
2023-02-05T16:25:47.141Z,63
2023-02-05T16:27:30.845Z,63
2023-02-05T16:29:14.575Z,61
2023-02-05T16:30:58.247Z,61
2023-02-05T16:32:41.942Z,60
2023-02-05T16:34:25.750Z,60
2023-02-05T16:36:09.355Z,60
2023-02-05T16:37:53.071Z,59
2023-02-05T16:39:36.753Z,60
2023-02-05T16:41:20.453Z,58
2023-02-05T16:43:04.166Z,60
2023-02-05T16:44:47.857Z,58
2023-02-05T16:46:31.565Z,59
2023-02-05T16:48:15.266Z,59
2023-02-05T16:49:58.970Z,58
2023-02-05T16:51:42.668Z,59
2023-02-05T16:53:26.379Z,58
2023-02-05T16:55:10.070Z,58
2023-02-05T16:56:53.788Z,59
2023-02-05T16:58:37.479Z,59
2023-02-05T17:00:21.179Z,68
2023-02-05T17:02:04.895Z,67
2023-02-05T17:03:48.590Z,67
2023-02-05T17:05:32.295Z,67
2023-02-05T17:07:16.097Z,66
2023-02-05T17:08:59.787Z,67
2023-02-05T17:10:43.413Z,67
2023-02-05T17:12:27.106Z,68
2023-02-05T17:14:23.612Z,67
2023-02-05T17:16:28.689Z,68
2023-02-05T17:18:33.726Z,68
2023-02-05T17:20:38.797Z,68
2023-02-05T17:22:43.838Z,68
2023-02-05T17:24:48.879Z,67
2023-02-05T17:26:53.933Z,68
2023-02-05T17:28:58.988Z,67
2023-02-05T17:31:04.033Z,66
2023-02-05T17:33:09.088Z,67
2023-02-05T17:35:14.144Z,67
2023-02-05T17:37:19.188Z,68
2023-02-05T17:39:24.249Z,68
2023-02-05T17:41:29.300Z,69
2023-02-05T17:43:34.351Z,68
2023-02-05T17:45:39.402Z,68
2023-02-05T17:47:44.460Z,67
2023-02-05T17:49:49.514Z,68
2023-02-05T17:51:54.563Z,69
2023-02-05T17:53:59.602Z,67
2023-02-05T17:55:56.127Z,67
2023-02-05T17:57:39.823Z,65
2023-02-05T17:59:23.532Z,3
2023-02-05T18:01:07.255Z,2
2023-02-05T18:02:50.987Z,3
2023-02-05T18:04:34.637Z,2
2023-02-05T18:06:18.343Z,2
2023-02-05T18:08:02.054Z,2
2023-02-05T18:09:45.760Z,3
2023-02-05T18:11:29.471Z,2
2023-02-05T18:13:13.167Z,3
2023-02-05T18:14:56.862Z,3
2023-02-05T18:16:40.587Z,3
2023-02-05T18:18:24.259Z,2
2023-02-05T18:20:07.964Z,3
2023-02-05T18:21:51.662Z,3
2023-02-05T18:23:35.372Z,2
2023-02-05T18:25:19.069Z,2
2023-02-05T18:27:02.775Z,3
2023-02-05T18:28:46.473Z,2
2023-02-05T18:30:30.171Z,3
2023-02-05T18:32:13.883Z,2
2023-02-05T18:33:57.594Z,3
2023-02-05T18:35:41.286Z,3
2023-02-05T18:37:25.055Z,2
2023-02-05T18:39:08.712Z,2
2023-02-05T18:40:52.393Z,3
2023-02-05T18:42:36.108Z,3
2023-02-05T18:44:19.794Z,3
2023-02-05T18:46:03.512Z,3
2023-02-05T18:47:47.194Z,2
2023-02-05T18:49:30.905Z,2
2023-02-05T18:51:14.658Z,3
2023-02-05T18:52:58.318Z,3
2023-02-05T18:54:42.100Z,11
2023-02-05T18:56:25.718Z,12
2023-02-05T18:58:09.421Z,12
2023-02-05T18:59:53.121Z,12
2023-02-05T19:01:36.827Z,11
2023-02-05T19:03:20.534Z,11
2023-02-05T19:05:04.240Z,12
2023-02-05T19:06:47.918Z,18
2023-02-05T19:08:31.641Z,18
2023-02-05T19:10:15.347Z,15
2023-02-05T19:11:59.041Z,16
2023-02-05T19:13:42.748Z,18
2023-02-05T19:15:26.460Z,30
2023-02-05T19:17:10.157Z,16
2023-02-05T19:18:53.938Z,31
2023-02-05T19:20:37.549Z,25
2023-02-05T19:22:21.268Z,11
2023-02-05T19:24:04.954Z,15
2023-02-05T19:25:48.659Z,11
2023-02-05T19:27:32.360Z,11
2023-02-05T19:29:16.063Z,3
2023-02-05T19:30:59.794Z,4
2023-02-05T19:32:45.785Z,3
2023-02-05T19:34:50.705Z,2
2023-02-05T19:36:55.701Z,2
2023-02-05T19:39:00.767Z,2
2023-02-05T19:41:05.786Z,3
2023-02-05T19:43:10.830Z,3
2023-02-05T19:45:15.946Z,2
2023-02-05T19:47:20.922Z,4
2023-02-05T19:49:26.065Z,2
2023-02-05T19:51:32.135Z,2
2023-02-05T19:53:38.097Z,3
2023-02-05T19:55:43.138Z,2
2023-02-05T19:57:49.207Z,4
2023-02-05T19:59:55.281Z,3
2023-02-05T20:02:01.341Z,2
2023-02-05T20:04:07.478Z,2
2023-02-05T20:06:13.475Z,2
2023-02-05T20:08:19.028Z,2
2023-02-05T20:10:25.088Z,2
2023-02-05T20:12:31.211Z,3
2023-02-05T20:14:37.023Z,2
2023-02-05T20:16:42.167Z,2
2023-02-05T20:18:47.427Z,2
2023-02-05T20:20:53.393Z,2
2023-02-05T20:22:59.455Z,3
2023-02-05T20:25:05.309Z,2
2023-02-05T20:27:11.380Z,3
2023-02-05T20:29:17.511Z,2
2023-02-05T20:31:23.313Z,3
2023-02-05T20:33:28.352Z,2
2023-02-05T20:35:33.438Z,2
2023-02-05T20:37:38.464Z,2
2023-02-05T20:39:43.512Z,2
2023-02-05T20:41:48.666Z,2
2023-02-05T20:43:54.721Z,2
2023-02-05T20:46:00.796Z,3
2023-02-05T20:48:06.862Z,2
2023-02-05T20:50:12.426Z,3
2023-02-05T20:52:17.567Z,3
2023-02-05T20:54:22.613Z,4
2023-02-05T20:56:27.653Z,2
2023-02-05T20:58:32.698Z,4
2023-02-05T21:00:37.743Z,3
2023-02-05T21:02:42.800Z,3
2023-02-05T21:04:47.843Z,3
2023-02-05T21:06:52.902Z,1
2023-02-05T21:08:57.963Z,2
2023-02-05T21:11:02.983Z,2
2023-02-05T21:13:08.028Z,2
2023-02-05T21:15:13.080Z,2
2023-02-05T21:17:18.137Z,2
2023-02-05T21:19:23.202Z,3
2023-02-05T21:21:28.219Z,2
2023-02-05T21:23:33.266Z,3
2023-02-05T21:25:38.315Z,2
2023-02-05T21:27:43.362Z,4
2023-02-05T21:29:48.413Z,2
2023-02-05T21:31:53.473Z,2
2023-02-05T21:33:58.524Z,2
2023-02-05T21:36:03.590Z,3
2023-02-05T21:38:08.606Z,3
2023-02-05T21:40:13.660Z,2
2023-02-05T21:42:18.708Z,2
2023-02-05T21:44:23.756Z,2
2023-02-05T21:46:28.817Z,4
2023-02-05T21:48:29.604Z,4
2023-02-05T21:50:19.692Z,5
2023-02-05T21:52:03.411Z,5
2023-02-05T21:53:47.104Z,4
2023-02-05T21:55:30.818Z,5
2023-02-05T21:57:14.515Z,5
2023-02-05T21:58:58.211Z,3
2023-02-05T22:00:41.918Z,3
2023-02-05T22:02:25.622Z,3
2023-02-05T22:04:09.327Z,3
2023-02-05T22:05:53.029Z,3
2023-02-05T22:07:36.726Z,11
2023-02-05T22:09:20.454Z,12
2023-02-05T22:11:04.138Z,11
2023-02-05T22:12:47.832Z,11
2023-02-05T22:14:31.541Z,3
2023-02-05T22:16:15.248Z,2
2023-02-05T22:17:58.965Z,2
2023-02-05T22:19:42.665Z,3
2023-02-05T22:21:26.350Z,3
2023-02-05T22:23:10.062Z,3
2023-02-05T22:24:53.761Z,3
2023-02-05T22:26:37.465Z,3
2023-02-05T22:28:21.166Z,3
2023-02-05T22:30:04.913Z,3
2023-02-05T22:31:48.577Z,3
2023-02-05T22:33:32.264Z,2
2023-02-05T22:35:15.977Z,3
2023-02-05T22:36:59.658Z,3
2023-02-05T22:38:43.375Z,3
2023-02-05T22:40:27.073Z,3
2023-02-05T22:42:10.795Z,3
2023-02-05T22:43:54.492Z,4
2023-02-05T22:45:38.180Z,10
2023-02-05T22:47:21.887Z,11
2023-02-05T22:49:05.589Z,11
2023-02-05T22:50:49.286Z,3
2023-02-05T22:52:32.990Z,3
2023-02-05T22:54:16.704Z,3
2023-02-05T22:56:00.400Z,2
2023-02-05T22:57:44.112Z,2
2023-02-05T22:59:27.810Z,3
2023-02-05T23:01:11.508Z,2
2023-02-05T23:02:55.212Z,2
2023-02-05T23:04:38.924Z,2
2023-02-05T23:06:22.618Z,2
2023-02-05T23:08:06.315Z,3
2023-02-05T23:09:50.015Z,3
2023-02-05T23:11:33.720Z,2
2023-02-05T23:13:17.418Z,2
2023-02-05T23:15:01.124Z,3
2023-02-05T23:16:44.833Z,2
2023-02-05T23:18:28.540Z,3
2023-02-05T23:20:12.259Z,3
2023-02-05T23:21:55.946Z,11
2023-02-05T23:23:39.639Z,11
2023-02-05T23:25:23.341Z,11
2023-02-05T23:27:07.091Z,2
2023-02-05T23:28:50.774Z,2
2023-02-05T23:30:34.463Z,2
2023-02-05T23:32:18.225Z,3
2023-02-05T23:34:01.884Z,3
2023-02-05T23:35:45.557Z,3
2023-02-05T23:37:29.302Z,3
2023-02-05T23:39:12.961Z,2
2023-02-05T23:40:56.682Z,2
2023-02-05T23:42:40.370Z,2
2023-02-05T23:44:24.080Z,3
2023-02-05T23:46:07.784Z,11
2023-02-05T23:47:51.480Z,11
2023-02-05T23:49:35.180Z,12
2023-02-05T23:51:18.889Z,10
2023-02-05T23:53:02.585Z,11
2023-02-05T23:54:46.298Z,3
2023-02-05T23:56:29.990Z,3
2023-02-05T23:58:13.699Z,3
2023-02-05T23:59:57.400Z,2
